• Join FlightAware (Why Join?)
  • Login
  • US Flag 
04:43AM EDT


 

Airport Tracker/Info


-or-


 

Live Flight TrackerFlight Track Log ✈ N133VU ✈ 27/Jun/2013 ✈ KFWA - KEYE

Flight Track Log - Related Links

Times and Time Zones

All times are in EDT time to prevent confusion due to time zone crossing. See the N133VU flight status page for this flight to view local times or setup timezone preferences in your user account.

Time Position Orientation Groundspeed Altitude Reporting Facility
EDT Latitude Longitude Course Direction KTS MPH feet Rate Location/Type
03:29PM 41.1069 -85.2178 217° Southwest 93 107 2,500  Level Chicago Center
03:30PM 41.1386 -85.2181 360° North 95 109 2,500 240 Level Chicago Center
03:31PM 41.1394 -85.2317 275° West 91 105 3,100 540 Climbing Chicago Center
03:32PM 41.1178 -85.2456 206° Southwest 89 102 3,700 480 Climbing Chicago Center
03:33PM 40.8270 -85.3231 217° Southwest  Level FlightAware Approximate
03:33PM 41.0939 -85.2592 203° Southwest 90 104 4,100  Level Chicago Center
03:34PM 40.8037 -85.3463 217° Southwest  Level FlightAware Approximate
03:34PM 41.0717 -85.2783 213° Southwest 92 106 4,700  Level Chicago Center
03:35PM 41.0483 -85.2978 212° Southwest 95 109 5,100 420 Climbing Chicago Center
03:36PM 41.0206 -85.3203 211° Southwest 97 112 5,600 480 Climbing Chicago Center
03:37PM 40.9986 -85.3406 215° Southwest 89 102 6,100 360 Climbing Chicago Center
03:38PM 40.9747 -85.3617 214° Southwest 101 116 6,400 360 Climbing Chicago Center
03:39PM 40.9517 -85.3803 211° Southwest 104 120 6,900 360 Climbing Chicago Center
03:40PM 40.9275 -85.4000 212° Southwest 100 115 7,200 240 Climbing Chicago Center
03:41PM 40.9050 -85.4208 215° Southwest 98 113 7,500 360 Climbing Chicago Center
03:42PM 40.8758 -85.4447 212° Southwest 104 120 8,000 240 Climbing Chicago Center
03:43PM 40.8494 -85.4664 212° Southwest 117 135 8,100  Climbing Chicago Center
03:44PM 40.8253 -85.4889 215° Southwest 120 138 8,100  Level Chicago Center
03:45PM 40.7931 -85.5147 211° Southwest 113 130 8,100  Level Chicago Center
03:46PM 40.7675 -85.5356 212° Southwest 115 132 8,100 -60 Level Chicago Center
03:47PM 40.7339 -85.5594 208° Southwest 118 136 8,000 -60 Descending Chicago Center
03:48PM 40.7058 -85.5819 211° Southwest 116 133 8,000  Level Chicago Center
03:49PM 40.6794 -85.6019 210° Southwest 111 128 8,100  Climbing Chicago Center
03:51PM 40.6289 -85.6497 216° Southwest 112 129 8,100  Level Chicago Center
03:52PM 40.6011 -85.6758 216° Southwest 113 130 8,100 -60 Level Chicago Center
03:53PM 40.5756 -85.6964 211° Southwest 116 133 8,000  Descending Chicago Center
03:54PM 40.5478 -85.7197 213° Southwest 117 135 8,100  Climbing Chicago Center
03:56PM 40.5175 -85.7450 212° Southwest 116 133 8,100 -240 Level Chicago Center
03:57PM 40.4819 -85.7744 212° Southwest 126 145 7,600 -480 Descending Chicago Center
03:58PM 40.4514 -85.7997 212° Southwest 136 157 7,200 -540 Descending Chicago Center
03:59PM 40.4217 -85.8256 213° Southwest 138 159 6,600 -600 Descending Chicago Center
04:00PM 40.3872 -85.8539 212° Southwest 137 158 6,100 -540 Descending Chicago Center
04:00PM 40.3719 -85.8681 215° Southwest 137 158 5,800 -540 Descending Indianapolis Center
04:01PM 40.3514 -85.8814 206° Southwest 138 159 5,500 -600 Descending Chicago Center
04:02PM 40.3211 -85.9078 214° Southwest 139 160 5,000 -720 Descending Chicago Center
04:03PM 40.2869 -85.9358 212° Southwest 134 154 4,200 -480 Descending Chicago Center
04:04PM 40.2531 -85.9636 212° Southwest 129 148 4,000 -120 Descending Chicago Center
04:05PM 40.2267 -85.9844 211° Southwest 121 139 4,000  Level Chicago Center
04:06PM 40.2011 -86.0042 211° Southwest 113 130 4,000  Level Chicago Center
04:07PM 40.1756 -86.0256 213° Southwest 110 127 4,000  Level Chicago Center
04:08PM 40.1486 -86.0481 213° Southwest 112 129 4,000 -180 Level Chicago Center
04:13PM 40.0130 -86.1820 213° Southwest 119 137 3,000 -240 Descending FlightAware
04:14PM 39.9990 -86.1910 206° Southwest 125 144 2,800 -480 Descending FlightAware
04:14PM 39.9930 -86.1940 201° Southwest 125 144 2,700 -180 Descending FlightAware
04:14PM 39.9770 -86.2040 206° Southwest 110 127 2,700  Level FlightAware
04:15PM 39.9660 -86.2110 206° Southwest 109 125 2,700  Level FlightAware
04:15PM 39.9530 -86.2190 205° Southwest 111 128 2,700 -120 Level FlightAware
04:16PM 39.9390 -86.2270 204° Southwest 107 123 2,600 -120 Descending FlightAware
04:16PM 39.9260 -86.2350 205° Southwest 107 123 2,600  Level FlightAware
04:17PM 39.9140 -86.2430 207° Southwest 114 131 2,600 -240 Level FlightAware
04:17PM 39.8990 -86.2520 205° Southwest 129 148 2,400 -540 Descending FlightAware
04:18PM 39.8840 -86.2610 205° Southwest 124 143 2,100 -480 Descending FlightAware
04:18PM 39.8710 -86.2690 205° Southwest 113 130 2,000 -300 Descending FlightAware
04:18PM 39.8650 -86.2790 232° Southwest 108 124 1,900 -180 Descending FlightAware
04:19PM 39.8580 -86.2950 240° Southwest 106 122 1,900  Level FlightAware
04:19PM 39.8550 -86.3020 241° Southwest 106 122 1,900  Level FlightAware
04:19PM 39.8480 -86.3080 213° Southwest 114 131 1,900  Level FlightAware
04:19PM 39.8430 -86.3120 212° Southwest 112 129 1,900  Level FlightAware
04:20PM 39.8340 -86.3180 207° Southwest 92 106 1,900 -300 Level FlightAware
04:21PM 39.8180 -86.3190 183° South 92 106 1,600 -480 Descending FlightAware
04:21PM 39.8190 -86.3010 86° East 63 72 1,200 -420 Descending FlightAware
04:22PM 39.8310 -86.2950 21° North 68 78 1,000 -300 Descending FlightAware